Time;durP1;ratioP1;P1;durP2;ratioP2;P2;SDS_P1;SDS_P2;PMS_P1;PMS_P2;Temp;Humidity;BMP_temperature;BMP_pressure;BME280_temperature;BME280_humidity;BME280_pressure;Samples;Min_cycle;Max_cycle;Signal;HPM_P1;HPM_P2
2022/03/18 00:00:20;;;;;;;77.37;45.37;;;;;;;5.75;100.00;98294.88;10414943;28;20663;-60
2022/03/18 00:05:23;;;;;;;71.87;41.97;;;;;;;5.73;100.00;98292.34;10414727;28;20211;-61
2022/03/18 00:10:24;;;;;;;77.60;43.93;;;;;;;5.75;100.00;98305.25;10414571;28;21036;-60
2022/03/18 00:15:25;;;;;;;74.70;42.77;;;;;;;5.78;100.00;98310.28;10414400;28;20307;-61
2022/03/18 00:20:26;;;;;;;74.63;43.60;;;;;;;5.70;100.00;98316.75;10414121;28;20220;-60
2022/03/18 00:25:26;;;;;;;79.30;44.37;;;;;;;5.55;100.00;98325.41;10413652;28;20251;-60
2022/03/18 00:30:27;;;;;;;76.67;44.60;;;;;;;5.62;100.00;98325.91;10413549;28;20687;-60
2022/03/18 00:35:28;;;;;;;76.67;42.97;;;;;;;5.52;100.00;98323.81;10395921;28;20596;-58
2022/03/18 00:40:29;;;;;;;70.67;41.10;;;;;;;5.54;100.00;98321.13;10413454;28;20216;-60
2022/03/18 00:45:29;;;;;;;71.93;39.70;;;;;;;5.53;100.00;98322.91;10413153;28;20725;-59
2022/03/18 00:55:48;;;;;;;73.37;37.83;;;;;;;5.55;100.00;98328.00;10413107;28;20188;-59
2022/03/18 01:00:49;;;;;;;71.90;37.83;;;;;;;5.48;100.00;98334.47;10412248;28;20216;-57
2022/03/18 01:05:49;;;;;;;65.50;35.60;;;;;;;5.41;100.00;98346.13;10412688;28;20199;-59
2022/03/18 01:10:49;;;;;;;63.00;34.83;;;;;;;5.25;100.00;98333.94;10412167;28;20212;-58
2022/03/18 01:15:50;;;;;;;66.37;34.33;;;;;;;5.07;100.00;98345.31;10412199;28;20195;-55
2022/03/18 01:20:50;;;;;;;67.27;34.33;;;;;;;5.04;100.00;98345.50;10410134;28;20307;-59
2022/03/18 01:25:51;;;;;;;66.37;31.27;;;;;;;4.97;100.00;98353.59;10411667;28;20199;-59
2022/03/18 01:30:51;;;;;;;64.43;31.13;;;;;;;4.82;100.00;98357.00;10411333;28;20181;-59
2022/03/18 01:35:51;;;;;;;61.13;29.13;;;;;;;4.88;100.00;98354.09;10410914;28;20193;-60
2022/03/18 01:40:52;;;;;;;60.87;29.77;;;;;;;4.76;100.00;98367.72;10410914;28;20213;-60
2022/03/18 01:45:52;;;;;;;73.87;32.83;;;;;;;4.67;100.00;98363.00;10411345;28;20196;-58
2022/03/18 01:50:53;;;;;;;57.53;31.17;;;;;;;4.81;100.00;98369.16;10411077;28;20188;-60
2022/03/18 01:55:55;;;;;;;59.50;31.63;;;;;;;4.81;100.00;98365.75;10410947;28;20196;-60
2022/03/18 02:00:55;;;;;;;60.13;30.93;;;;;;;4.73;100.00;98380.84;10410206;28;20303;-60
2022/03/18 02:05:57;;;;;;;58.93;29.97;;;;;;;4.71;100.00;98374.91;10410703;28;20710;-56
2022/03/18 02:10:57;;;;;;;60.13;30.63;;;;;;;4.80;100.00;98390.00;10393181;28;20211;-60
2022/03/18 02:16:02;;;;;;;72.53;32.90;;;;;;;4.57;100.00;98394.59;10410650;28;20192;-60
2022/03/18 02:21:02;;;;;;;72.33;32.73;;;;;;;4.58;100.00;98393.69;10410562;28;20218;-60
2022/03/18 02:26:02;;;;;;;64.57;32.13;;;;;;;4.60;100.00;98402.25;10410268;28;20268;-59
2022/03/18 02:31:03;;;;;;;71.97;32.63;;;;;;;4.56;100.00;98402.47;10410249;28;20212;-59
2022/03/18 02:36:03;;;;;;;67.53;32.13;;;;;;;4.59;100.00;98408.34;10410433;28;20193;-56
2022/03/18 02:41:04;;;;;;;65.30;30.97;;;;;;;4.61;100.00;98403.94;10409907;28;20230;-57
2022/03/18 02:46:05;;;;;;;67.33;30.83;;;;;;;4.54;100.00;98419.88;10410717;28;20279;-57
2022/03/18 02:51:07;;;;;;;70.20;31.87;;;;;;;4.36;100.00;98421.63;10417696;28;20223;-57
2022/03/18 02:56:07;;;;;;;81.00;31.77;;;;;;;4.31;100.00;98426.22;10417519;28;20212;-54
2022/03/18 03:01:08;;;;;;;74.60;33.87;;;;;;;4.24;100.00;98418.72;10417255;28;20699;-57
2022/03/18 03:11:28;;;;;;;80.47;34.53;;;;;;;4.18;100.00;98433.72;10417200;28;20213;-57
2022/03/18 03:16:29;;;;;;;75.33;34.67;;;;;;;4.35;100.00;98441.56;10416451;28;20207;-56
2022/03/18 03:21:30;;;;;;;77.93;34.80;;;;;;;4.20;100.00;98448.31;10416594;28;20337;-57
2022/03/18 03:26:30;;;;;;;83.90;35.77;;;;;;;4.27;100.00;98451.44;10416069;28;20193;-57
2022/03/18 03:31:30;;;;;;;78.03;35.43;;;;;;;4.26;100.00;98461.00;10415955;28;20729;-54
2022/03/18 03:36:31;;;;;;;79.00;37.07;;;;;;;4.21;100.00;98467.31;10416147;28;20659;-58
2022/03/18 03:41:31;;;;;;;73.93;34.13;;;;;;;4.27;100.00;98467.00;10436845;23;20259;-62
2022/03/18 03:46:33;;;;;;;72.07;32.83;;;;;;;4.45;100.00;98466.13;10415639;28;20217;-59
2022/03/18 03:51:34;;;;;;;72.23;34.53;;;;;;;4.34;100.00;98464.97;10415460;28;20220;-59
2022/03/18 03:56:34;;;;;;;75.23;35.17;;;;;;;4.31;100.00;98478.09;10415242;28;20718;-60
2022/03/18 04:01:35;;;;;;;75.53;35.80;;;;;;;4.36;100.00;98491.69;10414008;28;20219;-60
2022/03/18 04:06:35;;;;;;;75.30;35.30;;;;;;;4.34;100.00;98496.13;10414658;28;20200;-58
2022/03/18 04:11:35;;;;;;;69.80;33.40;;;;;;;4.32;100.00;98498.78;10414249;28;20292;-61
2022/03/18 04:16:36;;;;;;;73.07;37.07;;;;;;;4.25;100.00;98493.03;10413999;28;20193;-58
2022/03/18 04:21:36;;;;;;;72.70;34.67;;;;;;;4.23;100.00;98496.63;10413941;28;20650;-61
2022/03/18 04:26:37;;;;;;;74.07;33.73;;;;;;;4.25;100.00;98506.00;10413855;28;20207;-59
2022/03/18 04:31:37;;;;;;;84.87;36.97;;;;;;;4.16;100.00;98498.66;10413608;28;20204;-58
2022/03/18 04:36:37;;;;;;;71.67;34.17;;;;;;;4.22;100.00;98508.72;10414414;28;20583;-58
2022/03/18 04:41:38;;;;;;;79.73;35.90;;;;;;;4.15;100.00;98520.34;10413015;28;20243;-58
2022/03/18 04:46:38;;;;;;;91.90;39.80;;;;;;;4.02;100.00;98525.22;10413353;28;20192;-58
2022/03/18 04:51:39;;;;;;;90.00;41.03;;;;;;;4.02;100.00;98534.78;10413058;28;20204;-58
2022/03/18 05:01:58;;;;;;;88.43;41.13;;;;;;;4.05;100.00;98539.81;10412638;28;20228;-59
2022/03/18 05:06:58;;;;;;;92.93;40.53;;;;;;;4.06;100.00;98542.34;10412344;28;20192;-57
2022/03/18 05:11:59;;;;;;;91.50;42.03;;;;;;;3.98;100.00;98548.78;10412128;28;20196;-58
2022/03/18 05:16:59;;;;;;;101.70;44.00;;;;;;;4.03;100.00;98549.44;10412297;28;20192;-59
2022/03/18 05:22:01;;;;;;;89.27;41.40;;;;;;;4.08;100.00;98558.66;10411545;28;20719;-59
2022/03/18 05:27:01;;;;;;;92.07;42.17;;;;;;;4.08;100.00;98563.00;10411695;28;20189;-56
2022/03/18 05:32:02;;;;;;;93.50;41.60;;;;;;;4.06;100.00;98570.03;10411381;28;20220;-58
2022/03/18 05:37:05;;;;;;;88.37;43.20;;;;;;;4.08;100.00;98578.56;10411487;28;20237;-57
2022/03/18 05:42:06;;;;;;;95.27;42.67;;;;;;;4.11;100.00;98587.03;10411176;28;20228;-60
2022/03/18 05:47:06;;;;;;;95.83;44.70;;;;;;;4.00;100.00;98593.66;10411139;28;20194;-60
2022/03/18 05:52:08;;;;;;;100.00;45.87;;;;;;;4.02;100.00;98599.59;10411385;28;20243;-55
2022/03/18 05:57:09;;;;;;;90.37;43.47;;;;;;;4.03;100.00;98619.44;10410877;28;20188;-60
2022/03/18 06:02:10;;;;;;;88.70;44.97;;;;;;;4.11;100.00;98619.94;10409934;28;20707;-60
2022/03/18 06:07:11;;;;;;;84.73;42.77;;;;;;;4.09;100.00;98621.75;10410973;28;20919;-61
2022/03/18 06:12:11;;;;;;;93.73;44.67;;;;;;;4.10;100.00;98632.06;10410878;28;20215;-60
2022/03/18 06:17:11;;;;;;;88.10;42.90;;;;;;;4.17;100.00;98637.81;10410989;28;20189;-61
2022/03/18 06:22:12;;;;;;;83.97;42.43;;;;;;;4.10;100.00;98644.19;10412568;28;20251;-59
2022/03/18 06:27:12;;;;;;;81.63;40.27;;;;;;;4.13;100.00;98649.22;10418661;28;20184;-60
2022/03/18 06:32:13;;;;;;;75.70;40.00;;;;;;;4.26;100.00;98663.34;10418357;28;20212;-60
2022/03/18 06:37:13;;;;;;;76.50;39.90;;;;;;;4.19;100.00;98676.66;10400698;28;20736;-61
2022/03/18 06:42:14;;;;;;;78.87;38.57;;;;;;;4.30;100.00;98677.00;10417997;28;20258;-59
2022/03/18 06:47:14;;;;;;;78.00;37.83;;;;;;;4.27;100.00;98683.19;10417819;28;20199;-60
2022/03/18 06:52:15;;;;;;;73.13;38.77;;;;;;;4.27;100.00;98690.13;10417805;28;20208;-61
2022/03/18 06:57:15;;;;;;;75.90;37.87;;;;;;;4.13;100.00;98687.31;10417484;28;20278;-61
2022/03/18 07:02:16;;;;;;;78.00;39.97;;;;;;;4.17;100.00;98702.66;10417357;28;20232;-60
2022/03/18 07:07:16;;;;;;;79.00;41.13;;;;;;;4.21;100.00;98706.81;10417182;28;20251;-60
2022/03/18 07:12:17;;;;;;;75.87;37.87;;;;;;;4.19;100.00;98706.03;10416782;28;20216;-61
2022/03/18 07:22:36;;;;;;;71.00;39.07;;;;;;;4.32;100.00;98711.53;10416204;28;20220;-60
2022/03/18 07:27:36;;;;;;;70.70;37.43;;;;;;;4.36;100.00;98725.19;10416088;28;20647;-61
2022/03/18 07:32:37;;;;;;;82.43;40.27;;;;;;;4.62;100.00;98739.59;10413195;28;20703;-59
2022/03/18 07:37:37;;;;;;;69.67;37.00;;;;;;;4.67;100.00;98752.38;10414957;28;20305;-56
2022/03/18 07:42:46;;;;;;;69.83;39.90;;;;;;;4.60;100.00;98750.06;10415768;28;20255;-58
2022/03/18 07:47:49;;;;;;;80.53;41.60;;;;;;;4.77;100.00;98759.69;10415497;28;20200;-56
2022/03/18 07:52:52;;;;;;;69.17;39.37;;;;;;;4.86;100.00;98766.22;10413341;28;20259;-57
2022/03/18 07:57:52;;;;;;;69.00;40.87;;;;;;;4.95;100.00;98773.59;10415395;28;20663;-56
2022/03/18 08:02:54;;;;;;;74.70;39.20;;;;;;;5.09;100.00;98769.53;10412887;28;20228;-55
2022/03/18 08:07:54;;;;;;;70.17;39.13;;;;;;;5.47;100.00;98780.72;10415117;28;20191;-58
2022/03/18 08:12:54;;;;;;;67.57;38.20;;;;;;;5.51;100.00;98773.59;10414714;28;20287;-59
2022/03/18 08:17:55;;;;;;;81.40;41.50;;;;;;;5.50;100.00;98780.56;10414611;28;20192;-56
2022/03/18 08:22:56;;;;;;;60.10;36.33;;;;;;;5.62;100.00;98783.47;10412918;28;20232;-60
2022/03/18 08:27:56;;;;;;;62.03;38.40;;;;;;;6.16;100.00;98792.13;10409223;28;20192;-55
2022/03/18 08:32:56;;;;;;;63.07;36.33;;;;;;;7.09;100.00;98785.56;10412660;28;20207;-59
2022/03/18 08:37:57;;;;;;;53.87;34.53;;;;;;;7.98;98.27;98765.84;10412706;28;20196;-59
2022/03/18 08:42:59;;;;;;;56.93;34.43;;;;;;;8.16;89.73;98735.19;10411504;28;20229;-61
2022/03/18 08:47:59;;;;;;;56.57;34.50;;;;;;;7.65;90.87;98767.69;10412312;28;20193;-59
2022/03/18 08:53:00;;;;;;;54.50;32.40;;;;;;;8.83;87.64;98740.72;10411695;28;20204;-59
2022/03/18 08:58:00;;;;;;;56.67;33.53;;;;;;;9.14;81.56;98702.19;10412696;28;20192;-62
2022/03/18 09:03:01;;;;;;;48.13;32.00;;;;;;;8.77;81.68;98729.84;10411360;28;20216;-59
2022/03/18 09:08:01;;;;;;;52.10;36.37;;;;;;;7.91;82.24;98734.03;10412209;28;20181;-56
2022/03/18 09:13:02;;;;;;;59.73;33.40;;;;;;;7.66;86.79;98790.25;10410484;28;20204;-58
2022/03/18 09:18:02;;;;;;;57.30;34.47;;;;;;;7.75;86.32;98770.63;10411416;28;20223;-59
2022/03/18 09:23:04;;;;;;;51.97;31.50;;;;;;;8.19;85.62;98775.03;10398578;28;20260;-59
2022/03/18 09:28:04;;;;;;;54.53;34.93;;;;;;;8.37;85.31;98788.75;10375320;28;20201;-60
2022/03/18 09:33:04;;;;;;;57.80;32.40;;;;;;;9.33;81.04;98751.56;10405749;28;20283;-60
2022/03/18 09:38:05;;;;;;;55.13;32.83;;;;;;;9.40;78.49;98733.69;10407240;28;20614;-61
2022/03/18 09:43:07;;;;;;;54.87;33.13;;;;;;;9.28;77.85;98736.16;10445194;23;20305;-58
2022/03/18 09:48:09;;;;;;;53.33;33.67;;;;;;;9.24;78.79;98747.75;10446040;28;20191;-59
2022/03/18 09:53:10;;;;;;;50.50;32.00;;;;;;;10.05;76.01;98721.63;10446150;28;20216;-59
2022/03/18 09:58:11;;;;;;;52.57;33.00;;;;;;;9.33;75.07;98722.78;10428902;28;20199;-59
2022/03/18 10:03:16;;;;;;;50.63;32.50;;;;;;;9.03;76.13;98744.72;10446033;28;20208;-60
2022/03/18 10:08:17;;;;;;;48.83;31.67;;;;;;;10.89;72.31;98710.56;10444398;28;20608;-61
2022/03/18 10:13:20;;;;;;;48.00;31.80;;;;;;;11.69;67.39;98640.06;10437186;28;20218;-60
2022/03/18 10:18:20;;;;;;;47.35;32.63;;;;;;;11.50;68.02;98669.47;10446490;28;20243;-59
2022/03/18 10:23:22;;;;;;;59.92;38.28;;;;;;;11.01;69.95;98711.47;10447329;28;20658;-60
2022/03/18 10:28:40;;;;;;;52.75;33.50;;;;;;;10.22;72.20;98736.19;10446958;28;20196;-61
2022/03/18 10:39:21;;;;;;;48.53;32.83;;;;;;;11.78;67.24;98669.09;10445244;28;20259;-58
2022/03/18 10:44:22;;;;;;;48.35;31.15;;;;;;;12.28;64.07;98628.56;10444545;28;20333;-57
2022/03/18 10:49:23;;;;;;;44.90;31.15;;;;;;;12.31;65.81;98657.25;10445103;28;20330;-58
2022/03/18 10:54:24;;;;;;;49.88;31.52;;;;;;;12.88;62.04;98605.44;10446540;28;20214;-61
2022/03/18 10:59:27;;;;;;;50.35;32.63;;;;;;;12.82;63.08;98646.22;10444749;28;20677;-60
2022/03/18 11:04:28;;;;;;;41.88;29.15;;;;;;;14.16;61.23;98642.22;10444448;28;20214;-60
2022/03/18 11:11:06;;;;;;;43.13;28.67;;;;;;;14.66;57.05;98564.16;10431776;28;20204;-60
2022/03/18 11:14:53;;;;;;;41.95;27.45;;;;;;;15.19;54.89;98545.28;10452210;28;20211;-59
2022/03/18 11:19:53;;;;;;;48.33;29.80;;;;;;;14.89;56.28;98586.69;10452746;28;20594;-59
2022/03/18 11:24:55;;;;;;;46.47;31.13;;;;;;;13.89;56.39;98569.03;10453073;28;20230;-58
2022/03/18 11:30:22;;;;;;;44.85;30.45;;;;;;;13.93;57.98;98620.47;10435300;28;20573;-58
2022/03/18 11:35:22;;;;;;;42.78;26.70;;;;;;;14.65;57.14;98609.97;10451796;28;20258;-59
2022/03/18 11:40:27;;;;;;;46.60;28.05;;;;;;;13.89;58.94;98659.44;10451489;28;20238;-61
2022/03/18 11:45:32;;;;;;;47.42;27.20;;;;;;;12.96;62.50;98712.66;10451045;28;20228;-60
2022/03/18 11:50:38;;;;;;;41.75;26.55;;;;;;;14.21;58.71;98653.25;10452800;28;20219;-61
2022/03/18 11:55:39;;;;;;;40.03;26.48;;;;;;;12.87;62.21;98700.25;10451672;28;20220;-60
2022/03/18 12:00:43;;;;;;;39.97;26.33;;;;;;;13.17;60.85;98678.53;10449342;28;20196;-61
2022/03/18 12:05:54;;;;;;;40.83;25.65;;;;;;;13.25;60.36;98665.59;10446858;28;20248;-59
2022/03/18 12:11:00;;;;;;;45.63;28.73;;;;;;;13.09;61.46;98688.84;10450599;28;20191;-57
2022/03/18 12:16:00;;;;;;;40.38;26.13;;;;;;;14.00;59.92;98670.88;10434094;28;20302;-59
2022/03/18 12:21:01;;;;;;;42.88;28.33;;;;;;;12.52;60.49;98652.09;10450440;28;20230;-58
2022/03/18 12:26:05;;;;;;;39.35;26.63;;;;;;;14.01;59.09;98669.91;10431679;28;20220;-61
2022/03/18 12:31:13;;;;;;;41.10;25.95;;;;;;;13.97;59.81;98679.88;10450290;28;20196;-61
2022/03/18 12:36:15;;;;;;;40.83;26.20;;;;;;;12.77;60.58;98661.53;10450267;28;20211;-59
2022/03/18 12:41:18;;;;;;;45.05;27.35;;;;;;;12.40;64.79;98760.84;10450456;28;20251;-58
2022/03/18 12:46:19;;;;;;;40.65;27.05;;;;;;;12.25;64.39;98747.91;10449511;28;20235;-59
2022/03/18 12:51:19;;;;;;;39.25;25.65;;;;;;;12.72;60.92;98676.00;10449787;28;20183;-60
2022/03/18 12:56:22;;;;;;;44.72;25.20;;;;;;;13.52;59.50;98646.72;10442740;28;20263;-61
2022/03/18 13:01:27;;;;;;;39.00;26.15;;;;;;;14.25;55.97;98583.44;10431335;28;20446;-60
2022/03/18 13:06:27;;;;;;;40.85;27.08;;;;;;;13.24;59.43;98644.66;10428135;28;20216;-60
2022/03/18 13:11:32;;;;;;;40.20;26.63;;;;;;;14.21;56.43;98597.88;10406335;28;20208;-59
2022/03/18 13:16:38;;;;;;;44.25;27.58;;;;;;;13.82;57.15;98607.41;10411071;28;20218;-59
2022/03/18 13:21:43;;;;;;;37.45;25.38;;;;;;;13.58;58.23;98624.28;10448585;28;20243;-61
2022/03/18 13:26:47;;;;;;;40.33;27.42;;;;;;;14.28;58.27;98638.53;10448357;28;20294;-61
2022/03/18 13:37:17;;;;;;;37.08;26.00;;;;;;;14.71;55.83;98585.69;10430180;28;20200;-61
2022/03/18 13:42:25;;;;;;;35.85;25.15;;;;;;;14.72;55.11;98569.72;10445941;28;20220;-61
2022/03/18 13:47:27;;;;;;;40.95;26.58;;;;;;;14.41;56.50;98596.16;10447867;28;20192;-59
2022/03/18 13:52:33;;;;;;;41.08;25.17;;;;;;;14.33;57.71;98639.97;10431481;28;20717;-59
2022/03/18 13:57:47;;;;;;;40.53;25.95;;;;;;;13.73;57.94;98616.91;10446778;28;20184;-60
2022/03/18 14:02:58;;;;;;;38.00;25.75;;;;;;;13.84;58.24;98637.94;10450285;28;20216;-60
2022/03/18 14:08:00;;;;;;;33.67;23.70;;;;;;;15.51;55.42;98600.44;10451581;28;20654;-59
2022/03/18 14:13:02;;;;;;;40.03;24.75;;;;;;;13.20;58.80;98636.19;10449247;28;20238;-60
2022/03/18 14:18:05;;;;;;;35.65;23.65;;;;;;;13.93;58.76;98654.75;10447349;28;20199;-63
2022/03/18 14:23:26;;;;;;;43.10;24.55;;;;;;;12.85;61.32;98676.69;10450271;28;20250;-62
2022/03/18 14:28:28;;;;;;;39.50;26.38;;;;;;;13.70;58.27;98640.88;10446234;28;20654;-62
2022/03/18 14:33:30;;;;;;;41.30;25.15;;;;;;;13.58;58.16;98626.09;10447785;28;20241;-62
2022/03/18 14:38:31;;;;;;;35.67;25.20;;;;;;;12.85;61.87;98703.84;10427000;28;20227;-62
2022/03/18 14:43:31;;;;;;;38.75;24.80;;;;;;;12.37;63.07;98701.44;10428871;28;20334;-62
2022/03/18 14:48:31;;;;;;;38.83;24.85;;;;;;;12.29;63.68;98724.88;10454996;28;20188;-60
2022/03/18 14:53:32;;;;;;;34.63;24.10;;;;;;;12.30;64.87;98739.69;10456859;28;20212;-58
2022/03/18 14:58:33;;;;;;;42.47;24.63;;;;;;;10.93;67.67;98789.84;10455369;28;20302;-59
2022/03/18 15:03:33;;;;;;;39.47;23.65;;;;;;;10.72;70.44;98834.13;10454670;28;20235;-60
2022/03/18 15:08:34;;;;;;;49.60;24.20;;;;;;;12.02;67.78;98796.94;10453837;28;20274;-61
2022/03/18 15:13:36;;;;;;;36.70;23.30;;;;;;;12.11;64.75;98738.47;10454174;28;20223;-61
2022/03/18 15:18:36;;;;;;;48.10;25.25;;;;;;;11.67;66.11;98771.47;10423675;28;20677;-61
2022/03/18 15:23:36;;;;;;;60.47;32.67;;;;;;;11.56;65.67;98753.88;10453268;28;20246;-62
2022/03/18 15:28:37;;;;;;;46.80;25.08;;;;;;;10.58;70.31;98845.56;10454346;28;20202;-62
2022/03/18 15:33:37;;;;;;;43.47;25.23;;;;;;;10.00;73.73;98890.34;10451571;28;20298;-61
2022/03/18 15:38:39;;;;;;;47.17;27.40;;;;;;;9.48;76.31;98929.41;10453414;28;20184;-62
2022/03/18 15:43:40;;;;;;;43.70;26.27;;;;;;;9.17;78.56;98937.34;10454299;28;20231;-62
2022/03/18 15:48:40;;;;;;;44.57;25.43;;;;;;;9.24;79.06;98928.22;10458968;23;20236;-61
2022/03/18 15:53:42;;;;;;;44.67;25.70;;;;;;;9.04;80.97;98931.19;10411038;28;20275;-58
2022/03/18 15:58:43;;;;;;;44.73;25.37;;;;;;;9.32;79.92;98916.44;10412579;28;20248;-62
2022/03/18 16:03:43;;;;;;;49.60;27.00;;;;;;;8.94;82.13;98925.66;10413622;28;20658;-61
2022/03/18 16:08:44;;;;;;;50.30;27.07;;;;;;;8.89;82.98;98931.16;10412458;28;20239;-60
2022/03/18 16:13:44;;;;;;;46.37;26.60;;;;;;;8.61;83.34;98918.06;10413192;28;20563;-59
2022/03/18 16:18:46;;;;;;;48.90;27.07;;;;;;;8.36;84.57;98928.13;10413059;28;20236;-60
2022/03/18 16:23:47;;;;;;;48.73;29.47;;;;;;;8.21;85.07;98931.59;10413297;28;20221;-58
2022/03/18 16:28:50;;;;;;;47.97;29.03;;;;;;;8.28;85.12;98929.47;10410682;28;20258;-58
2022/03/18 16:33:50;;;;;;;56.13;30.80;;;;;;;8.28;84.39;98919.84;10389850;28;20181;-59
2022/03/18 16:38:51;;;;;;;58.90;30.17;;;;;;;8.09;87.34;98948.78;10394776;28;20212;-57
2022/03/18 16:43:52;;;;;;;52.83;29.87;;;;;;;7.94;88.66;98949.63;10394673;28;20686;-58
2022/03/18 16:54:11;;;;;;;53.17;32.00;;;;;;;7.85;90.14;98956.19;10406501;28;20196;-57
2022/03/18 16:59:12;;;;;;;53.53;29.33;;;;;;;7.89;90.27;98959.47;10411316;28;20217;-60
2022/03/18 17:04:15;;;;;;;53.70;31.57;;;;;;;7.73;91.94;98969.91;10411377;28;20224;-60
2022/03/18 17:09:16;;;;;;;52.10;32.03;;;;;;;7.53;91.53;98976.19;10410715;28;20209;-57
2022/03/18 17:14:16;;;;;;;51.90;30.43;;;;;;;7.54;91.48;98977.88;10410120;28;20193;-61
2022/03/18 17:19:17;;;;;;;53.93;32.80;;;;;;;7.37;92.32;98978.78;10410032;28;20284;-56
2022/03/18 17:24:22;;;;;;;57.13;34.07;;;;;;;7.19;94.22;98984.00;10410759;28;20721;-61
2022/03/18 17:29:22;;;;;;;52.30;31.43;;;;;;;7.21;93.31;98986.53;10410235;28;20216;-57
2022/03/18 17:34:22;;;;;;;58.40;33.07;;;;;;;7.02;94.29;98986.63;10410341;28;20663;-61
2022/03/18 17:39:23;;;;;;;53.37;32.63;;;;;;;6.77;94.68;98996.53;10409822;28;20728;-59
2022/03/18 17:44:23;;;;;;;59.63;32.10;;;;;;;6.54;96.17;99013.28;10409122;28;20410;-61
2022/03/18 17:49:23;;;;;;;61.83;32.30;;;;;;;6.33;99.73;99025.56;10391217;28;20220;-61
2022/03/18 17:54:24;;;;;;;55.87;32.40;;;;;;;6.07;100.00;99025.00;10372562;28;20256;-59
2022/03/18 17:59:24;;;;;;;53.93;32.43;;;;;;;5.93;100.00;99023.94;10370062;28;20251;-61
2022/03/18 18:04:25;;;;;;;67.10;37.37;;;;;;;5.91;100.00;99029.19;10370104;28;20580;-58
2022/03/18 18:09:25;;;;;;;75.37;38.47;;;;;;;5.70;100.00;99036.22;10369790;28;20633;-55
2022/03/18 18:14:25;;;;;;;65.73;36.87;;;;;;;5.16;100.00;99043.72;10387145;28;20267;-53
2022/03/18 18:24:47;;;;;;;64.87;37.40;;;;;;;4.10;100.00;99044.47;10392689;28;20307;-53
2022/03/18 18:29:48;;;;;;;64.50;36.83;;;;;;;4.11;100.00;99050.50;10377358;28;20236;-55
2022/03/18 18:34:48;;;;;;;58.53;34.53;;;;;;;3.88;100.00;99056.53;10376963;28;20201;-53
2022/03/18 18:39:49;;;;;;;70.00;37.70;;;;;;;3.45;100.00;99066.69;10376515;28;20646;-55
2022/03/18 18:44:49;;;;;;;64.43;35.33;;;;;;;3.17;100.00;99059.88;10376601;28;20267;-55
2022/03/18 18:49:50;;;;;;;71.17;39.00;;;;;;;2.88;100.00;99063.44;10374392;28;20237;-53
2022/03/18 18:54:51;;;;;;;63.03;35.50;;;;;;;2.97;100.00;99064.88;10373941;28;20674;-54
2022/03/18 18:59:51;;;;;;;68.97;36.60;;;;;;;2.97;100.00;99070.03;10373311;28;20300;-58
2022/03/18 19:04:52;;;;;;;71.47;36.80;;;;;;;2.57;100.00;99076.50;10373625;28;20713;-56
2022/03/18 19:09:52;;;;;;;76.30;38.70;;;;;;;2.48;100.00;99088.84;10372950;28;20711;-56
2022/03/18 19:14:53;;;;;;;70.43;40.23;;;;;;;2.44;100.00;99089.81;10373112;28;20197;-56
2022/03/18 19:19:56;;;;;;;84.67;42.80;;;;;;;2.14;100.00;99092.44;10372365;28;20216;-56
2022/03/18 19:24:56;;;;;;;78.17;39.57;;;;;;;2.18;100.00;99095.78;10372849;28;20726;-54
2022/03/18 19:29:57;;;;;;;78.33;41.53;;;;;;;2.12;100.00;99099.38;10372384;28;20300;-54
2022/03/18 19:35:02;;;;;;;74.23;39.50;;;;;;;2.07;100.00;99101.25;10372649;28;20196;-54
2022/03/18 19:40:06;;;;;;;84.73;41.77;;;;;;;1.94;100.00;99102.50;10371857;28;20224;-54
2022/03/18 19:45:07;;;;;;;74.17;39.17;;;;;;;1.95;100.00;99097.28;10372319;28;20225;-54
2022/03/18 19:50:08;;;;;;;77.57;40.07;;;;;;;1.87;100.00;99099.25;10338634;28;984412;-54
2022/03/18 19:55:09;;;;;;;77.43;42.10;;;;;;;1.82;100.00;99101.09;10374067;28;20569;-53
2022/03/18 20:05:29;;;;;;;87.23;43.43;;;;;;;1.64;100.00;99115.38;10373757;28;20225;-55
2022/03/18 20:10:29;;;;;;;96.50;42.27;;;;;;;1.53;100.00;99113.09;10372953;28;20213;-53
2022/03/18 20:15:30;;;;;;;81.00;40.80;;;;;;;1.48;100.00;99121.84;10373383;28;20258;-53
2022/03/18 20:20:31;;;;;;;83.17;40.90;;;;;;;1.33;100.00;99116.19;10372174;28;20226;-55
2022/03/18 20:25:31;;;;;;;81.97;42.70;;;;;;;1.23;100.00;99120.72;10372909;28;20224;-53
2022/03/18 20:30:31;;;;;;;93.50;42.43;;;;;;;1.20;100.00;99123.38;10372313;28;20227;-54
2022/03/18 20:35:32;;;;;;;80.27;39.57;;;;;;;1.27;100.00;99121.47;10374888;28;20241;-56
2022/03/18 20:40:32;;;;;;;91.83;45.27;;;;;;;1.08;100.00;99125.41;10392317;28;20691;-55
2022/03/18 20:45:33;;;;;;;89.60;41.83;;;;;;;1.14;100.00;99130.44;10384849;28;20215;-55
2022/03/18 20:50:34;;;;;;;87.27;40.77;;;;;;;1.06;100.00;99128.03;10373929;28;20252;-56
2022/03/18 20:55:35;;;;;;;84.63;42.57;;;;;;;0.85;100.00;99132.81;10371740;28;20197;-56
2022/03/18 21:00:36;;;;;;;84.30;41.10;;;;;;;0.83;100.00;99136.34;10371356;28;20227;-55
2022/03/18 21:05:37;;;;;;;89.10;40.90;;;;;;;0.83;100.00;99131.16;10371364;28;20820;-59
2022/03/18 21:10:39;;;;;;;93.40;44.53;;;;;;;0.76;100.00;99130.44;10370908;28;20216;-57
2022/03/18 21:15:39;;;;;;;84.27;41.27;;;;;;;0.70;100.00;99131.47;10371039;28;20670;-54
2022/03/18 21:20:40;;;;;;;85.33;40.80;;;;;;;0.67;100.00;99144.44;10369842;28;20213;-56
2022/03/18 21:30:39;;;;;;;93.23;45.63;;;;;;;0.40;100.00;99134.69;10370778;28;20280;-55
2022/03/18 21:31:01;;;;;;;92.10;44.97;;;;;;;0.41;100.00;99133.81;10370241;28;20215;-57
2022/03/18 21:36:01;;;;;;;95.23;44.73;;;;;;;0.31;100.00;99125.44;10369996;28;20197;-56
2022/03/18 21:41:01;;;;;;;89.90;39.83;;;;;;;0.33;100.00;99131.41;10369472;28;20275;-53
2022/03/18 21:46:02;;;;;;;83.07;40.00;;;;;;;0.26;100.00;99133.28;10370058;28;20292;-55
2022/03/18 21:51:04;;;;;;;80.30;41.23;;;;;;;0.22;100.00;99135.94;10414979;23;20240;-53
2022/03/18 21:56:04;;;;;;;82.43;39.80;;;;;;;0.21;100.00;99134.25;10410045;28;20196;-55
2022/03/18 22:01:05;;;;;;;83.43;41.00;;;;;;;0.14;100.00;99130.94;10410534;28;20217;-53
2022/03/18 22:06:06;;;;;;;90.43;42.80;;;;;;;0.02;100.00;99134.63;10410477;28;20188;-51
2022/03/18 22:11:08;;;;;;;66.43;32.90;;;;;;;-0.06;100.00;99134.78;10410487;28;20247;-51
2022/03/18 22:16:08;;;;;;;88.10;41.77;;;;;;;-0.14;100.00;99134.06;10410318;28;20192;-55
2022/03/18 22:21:09;;;;;;;88.13;40.67;;;;;;;-0.12;100.00;99132.31;10409962;28;20212;-52
2022/03/18 22:26:09;;;;;;;88.97;42.77;;;;;;;-0.18;100.00;99116.97;10410172;28;20279;-52
2022/03/18 22:31:09;;;;;;;91.47;43.70;;;;;;;-0.23;100.00;99111.03;10410111;28;20649;-52
2022/03/18 22:36:10;;;;;;;88.93;42.70;;;;;;;-0.16;100.00;99125.50;10410124;28;20255;-52
2022/03/18 22:41:10;;;;;;;97.57;43.37;;;;;;;-0.10;100.00;99117.66;10409831;28;20212;-53
2022/03/18 22:46:11;;;;;;;91.97;42.50;;;;;;;-0.12;100.00;99113.41;10409880;28;20337;-53
2022/03/18 22:51:15;;;;;;;95.27;42.07;;;;;;;-0.13;100.00;99112.56;10409568;28;20228;-53
2022/03/18 22:56:15;;;;;;;91.80;41.77;;;;;;;-0.21;100.00;99096.44;10409780;28;20250;-52
2022/03/18 23:01:15;;;;;;;92.87;41.77;;;;;;;-0.28;100.00;99102.56;10409357;28;20635;-52
2022/03/18 23:06:16;;;;;;;89.33;41.53;;;;;;;-0.32;100.00;99106.06;10414950;28;20559;-55
2022/03/18 23:16:35;;;;;;;96.03;42.90;;;;;;;-0.35;100.00;99099.28;10416387;28;20196;-52
2022/03/18 23:21:36;;;;;;;88.93;41.97;;;;;;;-0.23;100.00;99087.88;10416548;28;20283;-52
2022/03/18 23:26:36;;;;;;;96.20;41.07;;;;;;;-0.40;100.00;99085.63;10414847;28;20307;-54
2022/03/18 23:31:37;;;;;;;93.73;42.53;;;;;;;-0.54;100.00;99073.00;10413987;28;20614;-54
2022/03/18 23:36:37;;;;;;;93.47;45.57;;;;;;;-0.65;100.00;99078.34;10416392;28;20672;-52
2022/03/18 23:41:37;;;;;;;101.57;45.90;;;;;;;-0.72;100.00;99072.47;10415869;28;20652;-52